Time;durP1;ratioP1;P1;durP2;ratioP2;P2;SDS_P1;SDS_P2;PMS_P1;PMS_P2;Temp;Humidity;BMP_temperature;BMP_pressure;BME280_temperature;BME280_humidity;BME280_pressure;Samples;Min_cycle;Max_cycle;Signal;HPM_P1;HPM_P2
2022/04/08 00:02:07;;;;;;;17.97;1.33;;;;;;;3.69;100.00;99667.66;5014449;28;20018;-87
2022/04/08 00:04:32;;;;;;;15.77;1.40;;;;;;;3.64;100.00;99667.59;5021858;28;20033;-87
2022/04/08 00:06:59;;;;;;;17.60;1.30;;;;;;;3.61;100.00;99670.72;5013033;28;20026;-87
2022/04/08 00:09:24;;;;;;;13.60;1.43;;;;;;;3.58;100.00;99655.28;5009454;28;20113;-87
2022/04/08 00:11:49;;;;;;;17.03;1.90;;;;;;;3.65;100.00;99674.50;5023562;28;20366;-87
2022/04/08 00:14:15;;;;;;;18.00;1.97;;;;;;;3.64;100.00;99681.63;5012395;28;20057;-87
2022/04/08 00:16:40;;;;;;;14.13;1.50;;;;;;;3.62;100.00;99690.88;5010635;28;20430;-87
2022/04/08 00:19:05;;;;;;;16.50;1.40;;;;;;;3.61;100.00;99689.25;5010224;28;20083;-88
2022/04/08 00:21:31;;;;;;;22.77;1.90;;;;;;;3.62;100.00;99693.53;5011235;28;20030;-87
2022/04/08 00:23:56;;;;;;;17.63;1.70;;;;;;;3.63;100.00;99687.19;5009754;28;20293;-87
2022/04/08 00:26:22;;;;;;;29.33;2.00;;;;;;;3.68;100.00;99703.13;5010573;28;20030;-87
2022/04/08 00:28:47;;;;;;;13.53;1.00;;;;;;;3.68;100.00;99708.44;5009855;28;20096;-88
2022/04/08 00:31:12;;;;;;;15.47;1.60;;;;;;;3.70;100.00;99716.97;5010312;28;20037;-88
2022/04/08 00:33:38;;;;;;;20.57;2.20;;;;;;;3.68;100.00;99716.38;5010964;28;20356;-87
2022/04/08 00:36:03;;;;;;;15.23;1.43;;;;;;;3.71;100.00;99707.19;4992849;28;20502;-88
2022/04/08 00:38:28;;;;;;;17.00;1.50;;;;;;;3.72;100.00;99712.22;5007885;28;20030;-87
2022/04/08 00:40:54;;;;;;;14.90;1.20;;;;;;;3.70;100.00;99708.22;5008762;28;20034;-88
2022/04/08 00:43:19;;;;;;;21.33;1.30;;;;;;;3.67;100.00;99722.72;5011358;28;20305;-88
2022/04/08 00:45:45;;;;;;;15.13;1.20;;;;;;;3.60;100.00;99720.22;5010118;28;20018;-88
2022/04/08 00:48:11;;;;;;;17.38;1.35;;;;;;;3.59;100.00;99723.91;5010215;28;20034;-88
2022/04/08 00:50:41;;;;;;;10.77;1.43;;;;;;;3.63;100.00;99724.28;5000357;28;20022;-96
2022/04/08 00:53:07;;;;;;;14.90;1.50;;;;;;;3.61;100.00;99729.78;4993042;28;20101;-95
2022/04/08 00:55:34;;;;;;;17.52;1.45;;;;;;;3.63;100.00;99742.81;5007201;28;20537;-96
2022/04/08 00:58:02;;;;;;;11.82;1.50;;;;;;;3.68;100.00;99750.03;5001071;28;20022;-96
2022/04/08 01:00:32;;;;;;;13.73;1.48;;;;;;;3.72;100.00;99741.38;5017471;28;20084;-96
2022/04/08 01:02:58;;;;;;;16.60;1.37;;;;;;;3.73;100.00;99753.59;4995813;28;20109;-96
2022/04/08 01:05:24;;;;;;;19.57;1.80;;;;;;;3.76;100.00;99763.72;4995084;28;20780;-96
2022/04/08 01:07:50;;;;;;;19.15;1.35;;;;;;;3.75;100.00;99761.28;5013955;28;20029;-95
2022/04/08 01:10:15;;;;;;;21.73;1.83;;;;;;;3.75;100.00;99754.16;5023706;28;20040;-96
2022/04/08 01:12:40;;;;;;;13.47;1.50;;;;;;;3.80;100.00;99750.78;5034362;28;20041;-96
2022/04/08 01:15:07;;;;;;;18.25;1.80;;;;;;;3.82;100.00;99767.25;5017824;28;20129;-96
2022/04/08 01:17:32;;;;;;;12.93;1.67;;;;;;;3.84;100.00;99774.94;5015783;28;20111;-96
2022/04/08 01:19:57;;;;;;;18.27;1.48;;;;;;;3.81;100.00;99775.44;5012433;28;20069;-94
2022/04/08 01:22:24;;;;;;;15.37;1.97;;;;;;;3.81;100.00;99765.63;5014036;28;20084;-96
2022/04/08 01:24:56;;;;;;;21.85;2.10;;;;;;;3.79;100.00;99773.84;5010184;28;20006;-94
2022/04/08 01:27:22;;;;;;;19.10;2.07;;;;;;;3.71;100.00;99776.84;5028220;28;20061;-95
2022/04/08 01:29:47;;;;;;;16.27;1.60;;;;;;;3.60;100.00;99777.72;5013852;28;20281;-95
2022/04/08 01:32:14;;;;;;;10.50;1.17;;;;;;;3.45;100.00;99783.53;5011841;28;20440;-96
2022/04/08 01:34:40;;;;;;;12.32;1.17;;;;;;;3.38;100.00;99783.69;5011552;28;20054;-95
2022/04/08 01:37:05;;;;;;;16.30;1.27;;;;;;;3.33;100.00;99797.63;5008594;28;20528;-95
2022/04/08 01:39:30;;;;;;;17.97;1.40;;;;;;;3.31;100.00;99791.75;4996552;28;20441;-94
2022/04/08 01:41:56;;;;;;;18.23;1.13;;;;;;;3.39;100.00;99798.53;4995136;28;20347;-96
2022/04/08 01:44:21;;;;;;;17.27;1.47;;;;;;;3.44;100.00;99798.63;5012970;28;20125;-95
2022/04/08 01:46:47;;;;;;;16.40;1.40;;;;;;;3.46;100.00;99799.22;5010543;28;20022;-94
2022/04/08 01:49:12;;;;;;;13.88;1.80;;;;;;;3.37;100.00;99803.25;5011106;28;20022;-94
2022/04/08 01:51:37;;;;;;;18.07;1.80;;;;;;;3.22;100.00;99808.25;5012457;28;20022;-95
2022/04/08 01:54:03;;;;;;;10.30;1.17;;;;;;;3.09;100.00;99802.19;5012986;28;20049;-96
2022/04/08 01:56:28;;;;;;;16.47;1.37;;;;;;;3.01;100.00;99805.16;5012329;28;20026;-95
2022/04/08 01:58:53;;;;;;;13.73;1.47;;;;;;;2.94;100.00;99807.13;5009502;28;20037;-95
2022/04/08 02:01:19;;;;;;;14.23;1.33;;;;;;;2.86;100.00;99809.09;5013853;28;20030;-95
2022/04/08 02:03:44;;;;;;;11.25;1.00;;;;;;;2.80;100.00;99807.38;5012315;28;20168;-95
2022/04/08 02:06:09;;;;;;;18.93;1.63;;;;;;;2.81;100.00;99814.28;5012136;28;20109;-95
2022/04/08 02:08:34;;;;;;;14.63;1.07;;;;;;;2.87;100.00;99815.19;5010158;28;20073;-95
2022/04/08 02:11:00;;;;;;;18.03;1.73;;;;;;;2.90;100.00;99824.53;5013910;28;20049;-95
2022/04/08 02:13:25;;;;;;;11.53;1.53;;;;;;;2.92;100.00;99825.09;5019111;28;20030;-95
2022/04/08 02:15:50;;;;;;;18.80;1.40;;;;;;;2.88;100.00;99822.91;5012628;28;20592;-95
2022/04/08 02:18:16;;;;;;;15.93;1.40;;;;;;;2.87;100.00;99826.59;5040074;22;20118;-96
2022/04/08 02:20:42;;;;;;;11.00;1.65;;;;;;;2.85;100.00;99828.66;5035084;28;20075;-96
2022/04/08 02:23:08;;;;;;;16.83;1.20;;;;;;;2.83;100.00;99824.66;5033945;28;20022;-95
2022/04/08 02:25:33;;;;;;;21.10;2.28;;;;;;;2.81;100.00;99830.16;5029287;28;20025;-95
2022/04/08 02:27:59;;;;;;;18.17;1.73;;;;;;;2.94;100.00;99833.59;5021235;28;20026;-95
2022/04/08 02:30:24;;;;;;;23.73;1.53;;;;;;;3.02;100.00;99831.38;5035383;28;20081;-96
2022/04/08 02:32:50;;;;;;;20.40;2.10;;;;;;;3.12;100.00;99833.44;5037556;28;20103;-95
2022/04/08 02:35:15;;;;;;;19.13;1.20;;;;;;;3.24;100.00;99843.25;5055216;28;20014;-95
2022/04/08 02:37:41;;;;;;;14.00;1.30;;;;;;;3.32;100.00;99848.16;5057619;28;20089;-95
2022/04/08 02:40:07;;;;;;;20.20;1.70;;;;;;;3.37;100.00;99845.63;5057422;28;20060;-95
2022/04/08 02:42:32;;;;;;;20.13;1.30;;;;;;;3.38;100.00;99834.00;5058387;28;20012;-95
2022/04/08 02:44:58;;;;;;;11.63;1.63;;;;;;;3.31;100.00;99835.97;5038407;28;20488;-96
2022/04/08 02:47:23;;;;;;;14.32;1.60;;;;;;;3.16;100.00;99837.25;5036275;28;20038;-95
2022/04/08 02:49:49;;;;;;;15.43;1.90;;;;;;;3.02;100.00;99839.34;5035005;28;20040;-95
2022/04/08 02:52:15;;;;;;;21.30;1.85;;;;;;;2.87;100.00;99842.47;5034962;28;20073;-95
2022/04/08 02:54:41;;;;;;;17.97;1.53;;;;;;;2.78;100.00;99846.47;5035969;28;20025;-95
2022/04/08 02:57:06;;;;;;;16.33;1.60;;;;;;;2.69;100.00;99850.50;5035269;28;20287;-93
2022/04/08 02:59:31;;;;;;;16.70;1.57;;;;;;;2.61;100.00;99848.19;5034028;28;20033;-94
2022/04/08 03:01:57;;;;;;;19.70;1.80;;;;;;;2.48;100.00;99844.75;5025435;28;20037;-94
2022/04/08 03:04:22;;;;;;;14.40;1.60;;;;;;;2.40;100.00;99845.06;5034515;28;20058;-94
2022/04/08 03:06:48;;;;;;;13.93;1.48;;;;;;;2.38;100.00;99841.84;5053867;28;20173;-94
2022/04/08 03:09:13;;;;;;;17.17;2.13;;;;;;;2.37;100.00;99838.41;5058122;28;20038;-95
2022/04/08 03:11:38;;;;;;;10.50;1.37;;;;;;;2.33;100.00;99842.53;5042696;28;20013;-94
2022/04/08 03:14:05;;;;;;;9.80;1.30;;;;;;;2.28;100.00;99845.06;5038388;28;20272;-92
2022/04/08 03:16:30;;;;;;;13.80;1.52;;;;;;;2.20;100.00;99840.88;5036668;28;20049;-95
2022/04/08 03:18:55;;;;;;;16.45;1.35;;;;;;;2.17;100.00;99849.28;5054629;28;20034;-95
2022/04/08 03:21:21;;;;;;;14.03;1.23;;;;;;;2.16;100.00;99847.69;5058442;28;20093;-93
2022/04/08 03:23:48;;;;;;;16.47;1.70;;;;;;;2.12;100.00;99841.22;5057605;28;20069;-92
2022/04/08 03:26:13;;;;;;;11.98;1.52;;;;;;;2.13;100.00;99848.13;5058460;28;20010;-92
2022/04/08 03:28:38;;;;;;;11.93;1.40;;;;;;;2.10;100.00;99859.13;5050007;28;20057;-95
2022/04/08 03:31:03;;;;;;;17.03;2.83;;;;;;;2.08;100.00;99855.91;5046842;28;20093;-95
2022/04/08 03:33:30;;;;;;;17.07;1.73;;;;;;;2.07;100.00;99860.41;5020255;28;20497;-95
2022/04/08 03:35:55;;;;;;;13.95;1.77;;;;;;;2.06;100.00;99865.91;5050633;28;20026;-95
2022/04/08 03:38:20;;;;;;;13.83;1.73;;;;;;;2.00;100.00;99869.47;5031285;28;20018;-95
2022/04/08 03:40:47;;;;;;;14.87;1.57;;;;;;;1.91;100.00;99872.41;5034189;28;20520;-95
2022/04/08 03:43:12;;;;;;;14.15;2.03;;;;;;;1.87;100.00;99870.44;5035401;28;20172;-95
2022/04/08 03:45:37;;;;;;;8.93;1.30;;;;;;;1.87;100.00;99873.88;5033311;28;20472;-95
2022/04/08 03:48:03;;;;;;;13.90;1.67;;;;;;;1.81;100.00;99866.84;5034470;28;20279;-95
2022/04/08 03:50:28;;;;;;;13.57;1.90;;;;;;;1.82;100.00;99873.75;5033410;28;20029;-94
2022/04/08 03:52:54;;;;;;;12.70;1.60;;;;;;;1.79;100.00;99880.28;5039737;28;20021;-94
2022/04/08 03:55:19;;;;;;;10.95;1.40;;;;;;;1.76;100.00;99870.16;5047249;28;20041;-94
2022/04/08 03:57:45;;;;;;;19.20;1.87;;;;;;;1.77;100.00;99879.69;5034382;28;20018;-95
2022/04/08 04:00:10;;;;;;;14.20;2.20;;;;;;;1.84;100.00;99876.94;5032978;28;20369;-95
2022/04/08 04:02:36;;;;;;;11.73;1.67;;;;;;;1.79;100.00;99882.13;5035649;28;20055;-95
2022/04/08 04:05:03;;;;;;;15.13;1.83;;;;;;;1.73;100.00;99886.47;5035000;28;20025;-93
2022/04/08 04:07:29;;;;;;;10.88;1.65;;;;;;;1.67;100.00;99884.69;5026926;28;20123;-95
2022/04/08 04:09:54;;;;;;;13.52;2.25;;;;;;;1.57;100.00;99879.09;5016040;28;20037;-92
2022/04/08 04:12:20;;;;;;;9.20;1.90;;;;;;;1.59;100.00;99883.16;5033253;28;20022;-94
2022/04/08 04:14:45;;;;;;;10.97;1.97;;;;;;;1.60;100.00;99879.50;5030464;28;20403;-93
2022/04/08 04:17:10;;;;;;;13.07;2.17;;;;;;;1.57;100.00;99879.94;5031156;28;20500;-94
2022/04/08 04:19:36;;;;;;;12.83;2.47;;;;;;;1.54;100.00;99880.38;5036120;28;20041;-94
2022/04/08 04:22:02;;;;;;;10.27;2.58;;;;;;;1.58;100.00;99873.63;5039793;28;20623;-93
2022/04/08 04:24:28;;;;;;;13.35;2.30;;;;;;;1.56;100.00;99875.69;5031474;28;20022;-93
2022/04/08 04:26:55;;;;;;;13.80;2.43;;;;;;;1.51;100.00;99871.06;5031930;28;20468;-93
2022/04/08 04:29:20;;;;;;;17.13;2.13;;;;;;;1.46;100.00;99868.28;5029832;28;20775;-93
2022/04/08 04:31:45;;;;;;;13.05;2.42;;;;;;;1.44;100.00;99872.16;5031612;28;20032;-94
2022/04/08 04:34:11;;;;;;;9.87;2.50;;;;;;;1.39;100.00;99864.09;5034014;28;20033;-94
2022/04/08 04:36:37;;;;;;;16.60;2.93;;;;;;;1.39;100.00;99875.44;5025143;28;20041;-93
2022/04/08 04:39:02;;;;;;;10.00;2.63;;;;;;;1.44;100.00;99875.59;5026250;28;20307;-89
2022/04/08 04:41:27;;;;;;;17.23;3.00;;;;;;;1.43;100.00;99879.28;5028881;28;20361;-89
2022/04/08 04:43:53;;;;;;;17.37;3.27;;;;;;;1.40;100.00;99881.56;5030359;28;20029;-94
2022/04/08 04:46:18;;;;;;;10.57;3.08;;;;;;;1.31;100.00;99879.19;5020380;28;20083;-91
2022/04/08 04:48:43;;;;;;;19.40;4.07;;;;;;;1.31;100.00;99879.19;5018334;28;20029;-91
2022/04/08 04:51:11;;;;;;;15.87;3.33;;;;;;;1.31;100.00;99884.47;5023696;28;20448;-90
2022/04/08 04:53:37;;;;;;;15.52;3.80;;;;;;;1.34;100.00;99883.25;5028801;28;20026;-90
2022/04/08 04:56:02;;;;;;;14.73;4.17;;;;;;;1.30;100.00;99882.84;5029019;28;20044;-91
2022/04/08 04:58:27;;;;;;;17.80;3.57;;;;;;;1.25;100.00;99881.91;5028297;28;20400;-91
2022/04/08 05:00:52;;;;;;;11.40;3.83;;;;;;;1.21;100.00;99881.53;5029702;28;20033;-91
2022/04/08 05:03:18;;;;;;;16.60;4.47;;;;;;;1.23;100.00;99884.78;5031194;28;20124;-89
2022/04/08 05:05:43;;;;;;;18.13;4.67;;;;;;;1.29;100.00;99880.44;5030505;28;20037;-90
2022/04/08 05:08:08;;;;;;;18.35;5.28;;;;;;;1.28;100.00;99878.84;5028585;28;20109;-89
2022/04/08 05:10:34;;;;;;;24.60;5.40;;;;;;;1.27;100.00;99872.75;5037619;28;20100;-89
2022/04/08 05:12:59;;;;;;;15.27;5.63;;;;;;;1.35;100.00;99876.94;5041991;28;20060;-90
2022/04/08 05:15:25;;;;;;;11.80;5.25;;;;;;;1.35;100.00;99882.22;5037470;28;20465;-91
2022/04/08 05:17:51;;;;;;;18.30;5.90;;;;;;;1.36;100.00;99879.34;5032785;28;20045;-90
2022/04/08 05:20:16;;;;;;;16.20;5.00;;;;;;;1.40;100.00;99876.28;5031124;28;20567;-90
2022/04/08 05:22:42;;;;;;;25.70;5.40;;;;;;;1.45;100.00;99881.72;5033621;28;20033;-89
2022/04/08 05:25:08;;;;;;;20.80;5.95;;;;;;;1.57;100.00;99879.09;5032953;28;20035;-90
2022/04/08 05:27:41;;;;;;;16.80;5.47;;;;;;;1.64;100.00;99885.94;5032389;28;20034;-89
2022/04/08 05:30:08;;;;;;;15.65;5.65;;;;;;;1.67;100.00;99871.50;5031024;28;20057;-89
2022/04/08 05:32:34;;;;;;;13.85;5.07;;;;;;;1.73;100.00;99872.44;5030459;28;20026;-89
2022/04/08 05:34:59;;;;;;;13.10;5.07;;;;;;;1.82;100.00;99863.19;5030207;28;20028;-86
2022/04/08 05:37:24;;;;;;;13.88;5.28;;;;;;;1.95;100.00;99865.66;5029348;28;20033;-88
2022/04/08 05:39:52;;;;;;;14.30;5.20;;;;;;;2.03;100.00;99871.63;5029524;28;20075;-87
2022/04/08 05:42:18;;;;;;;24.83;6.25;;;;;;;2.10;100.00;99859.94;5025083;28;20026;-92
2022/04/08 05:44:43;;;;;;;26.37;6.67;;;;;;;2.18;100.00;99861.47;5033116;28;20022;-92
2022/04/08 05:47:08;;;;;;;20.03;7.03;;;;;;;2.25;100.00;99867.44;5031761;28;20117;-89
2022/04/08 05:49:41;;;;;;;23.50;8.07;;;;;;;2.36;100.00;99865.06;5030525;28;20029;-90
2022/04/08 05:52:07;;;;;;;18.77;7.65;;;;;;;2.47;100.00;99858.19;5038097;28;20045;-89
2022/04/08 05:54:32;;;;;;;18.10;7.93;;;;;;;2.52;100.00;99853.84;5049146;28;20057;-89
2022/04/08 05:57:00;;;;;;;18.70;7.88;;;;;;;2.57;100.00;99853.16;5038938;28;20136;-90
2022/04/08 05:59:28;;;;;;;24.27;8.32;;;;;;;2.62;100.00;99852.47;5047292;28;20045;-90
2022/04/08 06:02:02;;;;;;;21.00;8.40;;;;;;;2.68;100.00;99856.84;5057285;28;20048;-89
2022/04/08 06:04:29;;;;;;;24.20;9.37;;;;;;;2.75;100.00;99856.72;5054001;28;20288;-90
2022/04/08 06:07:02;;;;;;;15.60;8.02;;;;;;;2.81;100.00;99864.53;5046886;28;20065;-90
2022/04/08 06:09:33;;;;;;;21.05;8.55;;;;;;;2.87;100.00;99858.34;5037145;28;20093;-88
2022/04/08 06:12:01;;;;;;;20.77;8.65;;;;;;;2.90;100.00;99861.56;5054289;28;20085;-89
2022/04/08 06:14:27;;;;;;;20.48;8.93;;;;;;;2.90;100.00;99857.06;5054274;28;20034;-90
2022/04/08 06:16:59;;;;;;;20.00;9.23;;;;;;;2.95;100.00;99851.91;5055942;28;20044;-89
2022/04/08 06:19:25;;;;;;;20.50;8.27;;;;;;;2.97;100.00;99852.47;5049445;28;20053;-90
2022/04/08 06:21:50;;;;;;;20.05;8.32;;;;;;;2.97;100.00;99862.25;5043993;28;20120;-91
2022/04/08 06:24:20;;;;;;;20.23;8.90;;;;;;;3.02;100.00;99862.38;5056199;28;20045;-88
2022/04/08 06:27:06;;;;;;;14.35;7.90;;;;;;;2.98;100.00;99863.84;5045324;28;20102;-93
2022/04/08 06:29:32;;;;;;;22.98;8.13;;;;;;;2.97;100.00;99862.25;5049818;28;20038;-90
2022/04/08 06:31:58;;;;;;;18.85;7.70;;;;;;;2.99;100.00;99863.66;5054876;28;20021;-89
2022/04/08 06:34:23;;;;;;;17.10;8.20;;;;;;;3.09;100.00;99867.53;5035407;28;20035;-91
2022/04/08 06:36:48;;;;;;;18.47;7.90;;;;;;;3.24;100.00;99867.84;5037032;28;20025;-89
2022/04/08 06:39:13;;;;;;;16.37;8.27;;;;;;;3.40;100.00;99863.69;5036181;28;20029;-89
2022/04/08 06:41:39;;;;;;;16.53;7.40;;;;;;;3.56;100.00;99856.06;5033800;28;20447;-87
2022/04/08 06:44:04;;;;;;;17.57;7.17;;;;;;;3.71;100.00;99851.06;5041220;28;20201;-88
2022/04/08 06:46:30;;;;;;;12.85;7.03;;;;;;;3.86;100.00;99844.41;5032519;28;20059;-89
2022/04/08 06:48:56;;;;;;;23.43;7.50;;;;;;;4.09;100.00;99852.28;5027886;28;20076;-89
2022/04/08 06:51:21;;;;;;;12.55;7.18;;;;;;;4.33;100.00;99841.53;5032325;28;20035;-89
2022/04/08 06:53:47;;;;;;;15.73;6.77;;;;;;;4.54;100.00;99840.00;5034041;28;20109;-90
2022/04/08 06:56:13;;;;;;;11.77;6.57;;;;;;;4.78;100.00;99847.81;5029535;28;20025;-89
2022/04/08 06:58:39;;;;;;;16.77;6.90;;;;;;;4.91;100.00;99845.84;5026309;28;20043;-87
2022/04/08 07:01:06;;;;;;;13.48;6.53;;;;;;;5.04;100.00;99842.06;5032144;28;20026;-87
2022/04/08 07:03:31;;;;;;;16.77;5.70;;;;;;;5.07;100.00;99833.59;5030589;28;20034;-90
2022/04/08 07:05:56;;;;;;;14.27;5.93;;;;;;;5.12;100.00;99826.50;5032273;28;20296;-89
2022/04/08 07:08:22;;;;;;;9.93;5.47;;;;;;;5.29;100.00;99836.28;5031515;28;20051;-90
2022/04/08 07:10:47;;;;;;;8.47;5.27;;;;;;;5.40;100.00;99843.31;5031635;28;20037;-89
2022/04/08 07:13:12;;;;;;;12.90;5.33;;;;;;;5.47;100.00;99840.50;5031736;28;20030;-88
2022/04/08 07:15:38;;;;;;;13.77;5.60;;;;;;;5.61;100.00;99852.34;5033907;28;20531;-89
2022/04/08 07:18:04;;;;;;;12.67;5.23;;;;;;;5.73;99.59;99846.91;5035039;28;20343;-89
2022/04/08 07:20:29;;;;;;;11.57;4.77;;;;;;;5.85;100.00;99835.31;5034373;28;20033;-90
2022/04/08 07:22:55;;;;;;;11.40;4.70;;;;;;;6.00;99.23;99834.69;5031869;28;20311;-89
2022/04/08 07:25:20;;;;;;;9.40;4.40;;;;;;;6.10;97.16;99836.66;5036816;28;20057;-89
2022/04/08 07:27:50;;;;;;;9.27;4.00;;;;;;;6.09;95.56;99827.84;5032218;28;20080;-89
2022/04/08 07:30:21;;;;;;;5.45;4.10;;;;;;;6.17;95.16;99830.06;5033023;28;20474;-89
2022/04/08 07:32:48;;;;;;;9.70;4.10;;;;;;;6.21;93.60;99831.13;5032482;28;20396;-88
2022/04/08 07:35:14;;;;;;;8.65;4.20;;;;;;;6.28;94.79;99835.47;5032976;28;20046;-87
2022/04/08 07:37:39;;;;;;;14.87;4.10;;;;;;;6.32;92.65;99828.59;5033250;28;20421;-87
2022/04/08 07:40:07;;;;;;;10.07;3.20;;;;;;;6.39;92.30;99823.03;5038788;28;20387;-86
2022/04/08 07:42:32;;;;;;;7.20;3.42;;;;;;;6.49;93.73;99825.78;5039472;28;20046;-90
2022/04/08 07:44:57;;;;;;;5.97;3.20;;;;;;;6.65;90.45;99824.03;5035063;28;20079;-90
2022/04/08 07:47:27;;;;;;;7.20;3.10;;;;;;;6.67;88.80;99827.25;5026532;28;20451;-87
2022/04/08 07:49:59;;;;;;;7.38;3.33;;;;;;;6.74;89.69;99830.50;5029663;28;20029;-90
2022/04/08 07:52:26;;;;;;;8.85;3.13;;;;;;;6.86;90.31;99840.94;5029892;28;20082;-89
2022/04/08 07:54:53;;;;;;;8.98;3.03;;;;;;;6.95;89.43;99827.94;5029609;28;20128;-90
2022/04/08 07:57:18;;;;;;;7.23;2.70;;;;;;;6.98;88.34;99824.75;5032042;28;20033;-91
2022/04/08 07:59:44;;;;;;;8.23;2.73;;;;;;;7.04;88.43;99828.25;5031280;28;20294;-91
2022/04/08 08:02:10;;;;;;;8.47;2.80;;;;;;;7.11;87.87;99829.66;5032102;28;20037;-90
2022/04/08 08:04:36;;;;;;;7.40;3.22;;;;;;;7.18;85.95;99825.94;5028824;28;20029;-90
2022/04/08 08:07:01;;;;;;;6.57;2.90;;;;;;;7.25;87.15;99826.50;5030210;28;20182;-92
2022/04/08 08:09:26;;;;;;;6.00;2.90;;;;;;;7.30;85.20;99820.38;5030377;28;20028;-90
2022/04/08 08:11:52;;;;;;;6.07;2.70;;;;;;;7.37;86.37;99821.75;5030343;28;20032;-90
2022/04/08 08:14:17;;;;;;;5.35;2.92;;;;;;;7.42;85.22;99815.63;5030145;28;20030;-88
2022/04/08 08:16:42;;;;;;;11.07;2.90;;;;;;;7.51;85.12;99819.41;5030673;28;20026;-89
2022/04/08 08:19:07;;;;;;;6.30;2.90;;;;;;;7.61;84.56;99823.97;5028988;28;20124;-89
2022/04/08 08:21:33;;;;;;;7.17;3.20;;;;;;;7.72;84.58;99820.25;5030246;28;20029;-88
2022/04/08 08:23:58;;;;;;;9.90;2.87;;;;;;;7.69;80.79;99825.31;5031209;28;20452;-89
2022/04/08 08:26:25;;;;;;;5.83;2.90;;;;;;;7.68;82.68;99823.72;5030416;28;20189;-88
2022/04/08 08:28:50;;;;;;;7.63;3.00;;;;;;;7.83;83.22;99820.28;5029916;28;20026;-89
2022/04/08 08:31:16;;;;;;;6.53;3.10;;;;;;;7.88;81.70;99814.94;5030160;28;20144;-89
2022/04/08 08:33:43;;;;;;;6.93;3.10;;;;;;;8.04;82.15;99815.78;5029281;28;20040;-88
2022/04/08 08:36:08;;;;;;;6.40;3.00;;;;;;;8.18;80.64;99810.72;5030774;28;20484;-88
2022/04/08 08:38:34;;;;;;;9.87;3.10;;;;;;;8.21;78.66;99802.19;5030630;28;20034;-88
2022/04/08 08:40:59;;;;;;;8.47;2.43;;;;;;;8.25;77.10;99799.78;5029875;28;20037;-88
2022/04/08 08:43:24;;;;;;;7.07;2.50;;;;;;;8.24;76.30;99793.63;5030086;28;20079;-89
2022/04/08 08:45:50;;;;;;;10.05;2.40;;;;;;;8.23;75.37;99789.34;5029830;28;20036;-88
2022/04/08 08:48:16;;;;;;;8.33;2.50;;;;;;;8.41;76.94;99792.53;5032142;28;20751;-88
2022/04/08 08:50:46;;;;;;;7.47;2.40;;;;;;;8.52;75.30;99780.84;5021976;28;20452;-87
2022/04/08 08:53:17;;;;;;;7.77;2.60;;;;;;;8.72;76.23;99773.84;5043705;28;20295;-87
2022/04/08 08:55:44;;;;;;;5.88;2.50;;;;;;;8.87;75.78;99776.47;5036812;28;20083;-87
2022/04/08 08:58:10;;;;;;;5.35;1.90;;;;;;;8.97;70.86;99772.16;5032046;28;20023;-87
2022/04/08 09:00:36;;;;;;;4.97;2.00;;;;;;;9.11;72.12;99767.03;5034610;28;20101;-87
2022/04/08 09:03:03;;;;;;;9.23;2.50;;;;;;;9.21;73.05;99759.78;5031154;28;20025;-87
2022/04/08 09:05:29;;;;;;;5.38;2.20;;;;;;;9.46;74.53;99763.41;5030805;28;20353;-88
2022/04/08 09:07:58;;;;;;;8.30;2.85;;;;;;;9.51;70.73;99768.69;5031694;28;20025;-88
2022/04/08 09:10:31;;;;;;;6.68;2.20;;;;;;;9.42;71.04;99770.38;5025213;28;20033;-88
2022/04/08 09:12:57;;;;;;;4.82;2.55;;;;;;;9.51;71.33;99760.69;5027487;28;20057;-88
2022/04/08 09:15:23;;;;;;;6.05;1.92;;;;;;;9.54;69.11;99754.00;5028283;28;20057;-88
2022/04/08 09:17:49;;;;;;;9.15;1.90;;;;;;;9.51;66.30;99760.69;5028945;28;20017;-88
2022/04/08 09:20:14;;;;;;;5.87;2.03;;;;;;;9.62;69.15;99752.59;5035275;28;20123;-89
2022/04/08 09:22:39;;;;;;;5.30;2.20;;;;;;;9.77;67.99;99762.41;5029061;28;20057;-88
2022/04/08 09:25:10;;;;;;;8.73;2.00;;;;;;;9.91;67.87;99767.91;5037833;28;20106;-90
2022/04/08 09:27:37;;;;;;;8.70;1.90;;;;;;;9.95;66.22;99760.94;5049742;28;20033;-94
2022/04/08 09:30:03;;;;;;;6.38;2.22;;;;;;;9.99;65.51;99760.09;5041630;28;20033;-93
2022/04/08 09:32:28;;;;;;;7.30;2.03;;;;;;;9.82;63.91;99755.16;5043601;28;20047;-94
2022/04/08 09:34:56;;;;;;;11.70;2.27;;;;;;;9.67;63.74;99757.94;5034320;28;20121;-90
2022/04/08 09:37:21;;;;;;;8.93;1.95;;;;;;;9.56;62.85;99754.53;5028567;28;20033;-89
2022/04/08 09:40:03;;;;;;;9.18;2.20;;;;;;;9.67;65.07;99758.72;5028299;28;20052;-87
2022/04/08 09:42:45;;;;;;;6.40;1.85;;;;;;;9.67;67.32;99753.38;5040408;28;20033;-91
2022/04/08 09:45:11;;;;;;;4.53;2.00;;;;;;;9.76;65.89;99753.56;5035638;28;20037;-90
2022/04/08 09:47:37;;;;;;;9.03;2.10;;;;;;;9.78;63.93;99748.75;5036241;28;20121;-91
2022/04/08 09:50:04;;;;;;;4.50;2.00;;;;;;;9.90;64.76;99745.72;5034858;28;20809;-92
2022/04/08 09:52:29;;;;;;;6.93;2.22;;;;;;;9.92;63.37;99748.13;5030807;28;20052;-92
2022/04/08 09:54:58;;;;;;;8.27;2.10;;;;;;;9.91;64.65;99754.53;5030151;28;20520;-89
2022/04/08 09:57:23;;;;;;;7.93;1.90;;;;;;;9.98;64.57;99755.03;5033072;28;20030;-90
2022/04/08 09:59:54;;;;;;;9.37;2.20;;;;;;;10.13;64.12;99746.09;5028615;28;20417;-88
2022/04/08 10:02:24;;;;;;;7.88;1.90;;;;;;;10.27;63.75;99751.56;5030441;28;20025;-87
2022/04/08 10:04:52;;;;;;;9.45;2.38;;;;;;;10.15;62.13;99750.06;5030759;28;20411;-87
2022/04/08 10:07:19;;;;;;;5.67;1.80;;;;;;;10.27;63.31;99744.34;5032211;28;20104;-85
2022/04/08 10:10:04;;;;;;;4.87;1.70;;;;;;;10.44;64.84;99749.28;5029473;28;20318;-87
2022/04/08 10:13:08;;;;;;;10.55;2.10;;;;;;;10.64;65.34;99742.13;5029852;28;20033;-86
2022/04/08 10:15:50;;;;;;;8.57;1.80;;;;;;;10.66;63.98;99745.31;5030998;28;20592;-88
2022/04/08 10:18:15;;;;;;;13.18;2.00;;;;;;;10.65;61.24;99743.72;5018023;28;20611;-91
2022/04/08 10:20:40;;;;;;;8.73;1.97;;;;;;;10.68;60.86;99745.06;5028640;28;20124;-87
2022/04/08 10:23:09;;;;;;;8.07;2.30;;;;;;;10.63;61.59;99740.53;5029684;28;20114;-87
2022/04/08 10:25:40;;;;;;;8.27;2.58;;;;;;;10.34;60.58;99738.66;5029534;28;20029;-88
2022/04/08 10:28:06;;;;;;;6.57;1.90;;;;;;;10.38;62.33;99738.88;5028515;28;20032;-92
2022/04/08 10:30:43;;;;;;;9.27;2.17;;;;;;;10.32;60.63;99740.81;5027976;28;20029;-93
2022/04/08 10:33:08;;;;;;;4.03;2.10;;;;;;;10.18;62.47;99740.66;5036323;28;20041;-90
2022/04/08 10:35:35;;;;;;;6.43;1.87;;;;;;;10.19;62.03;99736.91;5026512;28;20022;-88
2022/04/08 10:38:04;;;;;;;6.43;1.75;;;;;;;10.23;62.59;99724.56;5027706;28;20025;-91
2022/04/08 10:40:32;;;;;;;11.35;2.40;;;;;;;10.25;62.13;99733.13;5030793;28;20034;-91
2022/04/08 10:42:59;;;;;;;7.32;2.10;;;;;;;10.04;61.76;99729.84;5031356;28;20025;-91
2022/04/08 10:45:25;;;;;;;10.30;2.28;;;;;;;10.09;61.88;99720.97;5033529;28;20037;-92
2022/04/08 10:47:50;;;;;;;7.03;2.10;;;;;;;10.25;63.88;99725.09;5034462;28;20030;-90
2022/04/08 10:50:30;;;;;;;7.43;2.37;;;;;;;10.42;62.44;99727.34;5032744;28;20049;-91
2022/04/08 10:53:04;;;;;;;10.57;2.10;;;;;;;10.40;61.57;99729.53;5033916;28;20038;-92
2022/04/08 10:55:29;;;;;;;6.55;1.88;;;;;;;10.25;60.84;99729.63;5026958;28;20033;-91
2022/04/08 10:57:57;;;;;;;9.43;1.80;;;;;;;10.14;61.53;99727.06;5023930;28;20475;-93
2022/04/08 11:00:25;;;;;;;7.63;1.83;;;;;;;10.24;60.58;99731.53;5033001;28;20037;-95
2022/04/08 11:02:53;;;;;;;7.93;2.13;;;;;;;10.30;59.89;99732.25;5032256;28;20072;-92
2022/04/08 11:05:18;;;;;;;13.32;2.38;;;;;;;10.27;59.77;99728.28;5033700;28;20499;-92
2022/04/08 11:07:46;;;;;;;6.33;1.93;;;;;;;10.23;59.07;99727.25;5033661;28;20030;-95
2022/04/08 11:10:13;;;;;;;10.93;1.70;;;;;;;10.15;59.55;99717.13;5035200;28;20026;-95
2022/04/08 11:12:43;;;;;;;6.57;2.00;;;;;;;10.11;61.66;99713.44;5033946;28;20033;-96
2022/04/08 11:15:16;;;;;;;6.80;2.10;;;;;;;9.93;60.04;99705.03;5031801;28;20049;-87
2022/04/08 11:17:42;;;;;;;5.22;1.73;;;;;;;9.82;61.44;99706.19;5036186;28;20024;-94
2022/04/08 11:20:14;;;;;;;5.65;1.95;;;;;;;9.80;61.36;99703.78;5036428;28;20029;-93
2022/04/08 11:22:44;;;;;;;7.30;2.03;;;;;;;9.97;61.19;99699.91;5030830;28;20025;-88
2022/04/08 11:25:22;;;;;;;7.32;1.88;;;;;;;10.11;60.47;99697.38;5034886;28;20120;-90
2022/04/08 11:28:09;;;;;;;7.27;1.87;;;;;;;10.45;61.63;99701.91;5016942;28;20036;-88